sensor_id;sensor_type;location;lat;lon;timestamp;P1;durP1;ratioP1;P2;durP2;ratioP2
74102;SDS011;62853;46.166;3.640;2022-12-24T00:01:12;19.33;;;5.40;;
74102;SDS011;62853;46.166;3.640;2022-12-24T00:03:37;18.90;;;4.93;;
74102;SDS011;62853;46.166;3.640;2022-12-24T00:06:06;25.70;;;4.43;;
74102;SDS011;62853;46.166;3.640;2022-12-24T00:08:33;25.13;;;5.03;;
74102;SDS011;62853;46.166;3.640;2022-12-24T00:10:59;23.98;;;4.97;;
74102;SDS011;62853;46.166;3.640;2022-12-24T00:13:24;18.42;;;4.57;;
74102;SDS011;62853;46.166;3.640;2022-12-24T00:15:50;21.63;;;4.50;;
74102;SDS011;62853;46.166;3.640;2022-12-24T00:18:15;26.50;;;6.20;;
74102;SDS011;62853;46.166;3.640;2022-12-24T00:20:41;30.42;;;5.38;;
74102;SDS011;62853;46.166;3.640;2022-12-24T00:23:11;22.08;;;5.43;;
74102;SDS011;62853;46.166;3.640;2022-12-24T00:25:36;18.95;;;4.35;;
74102;SDS011;62853;46.166;3.640;2022-12-24T00:28:01;23.13;;;4.20;;
74102;SDS011;62853;46.166;3.640;2022-12-24T00:30:27;25.88;;;5.80;;
74102;SDS011;62853;46.166;3.640;2022-12-24T00:32:52;24.38;;;3.90;;
74102;SDS011;62853;46.166;3.640;2022-12-24T00:35:17;20.73;;;5.10;;
74102;SDS011;62853;46.166;3.640;2022-12-24T00:37:45;19.88;;;4.47;;
74102;SDS011;62853;46.166;3.640;2022-12-24T00:40:11;24.17;;;5.00;;
74102;SDS011;62853;46.166;3.640;2022-12-24T00:42:37;19.30;;;4.30;;
74102;SDS011;62853;46.166;3.640;2022-12-24T00:45:02;24.83;;;6.07;;
74102;SDS011;62853;46.166;3.640;2022-12-24T00:47:28;28.48;;;5.55;;
74102;SDS011;62853;46.166;3.640;2022-12-24T00:49:53;28.65;;;6.43;;
74102;SDS011;62853;46.166;3.640;2022-12-24T00:52:19;25.02;;;5.80;;
74102;SDS011;62853;46.166;3.640;2022-12-24T00:54:44;24.20;;;6.05;;
74102;SDS011;62853;46.166;3.640;2022-12-24T00:57:09;30.38;;;6.38;;
74102;SDS011;62853;46.166;3.640;2022-12-24T00:59:35;26.73;;;5.90;;
74102;SDS011;62853;46.166;3.640;2022-12-24T01:02:00;24.23;;;6.65;;
74102;SDS011;62853;46.166;3.640;2022-12-24T01:04:25;18.80;;;5.20;;
74102;SDS011;62853;46.166;3.640;2022-12-24T01:07:09;21.13;;;6.03;;
74102;SDS011;62853;46.166;3.640;2022-12-24T01:09:35;41.33;;;7.68;;
74102;SDS011;62853;46.166;3.640;2022-12-24T01:12:00;25.75;;;6.07;;
74102;SDS011;62853;46.166;3.640;2022-12-24T01:14:26;26.80;;;5.68;;
74102;SDS011;62853;46.166;3.640;2022-12-24T01:16:51;29.10;;;6.25;;
74102;SDS011;62853;46.166;3.640;2022-12-24T01:19:16;34.72;;;7.22;;
74102;SDS011;62853;46.166;3.640;2022-12-24T01:21:42;30.00;;;5.63;;
74102;SDS011;62853;46.166;3.640;2022-12-24T01:24:10;23.80;;;6.28;;
74102;SDS011;62853;46.166;3.640;2022-12-24T01:26:39;25.88;;;5.85;;
74102;SDS011;62853;46.166;3.640;2022-12-24T01:29:04;27.10;;;6.00;;
74102;SDS011;62853;46.166;3.640;2022-12-24T01:31:29;22.77;;;4.65;;
74102;SDS011;62853;46.166;3.640;2022-12-24T01:33:55;23.05;;;5.95;;
74102;SDS011;62853;46.166;3.640;2022-12-24T01:36:20;15.93;;;4.38;;
74102;SDS011;62853;46.166;3.640;2022-12-24T01:38:46;25.85;;;5.10;;
74102;SDS011;62853;46.166;3.640;2022-12-24T01:41:16;25.75;;;5.38;;
74102;SDS011;62853;46.166;3.640;2022-12-24T01:44:18;22.02;;;5.47;;
74102;SDS011;62853;46.166;3.640;2022-12-24T01:46:46;22.00;;;4.28;;
74102;SDS011;62853;46.166;3.640;2022-12-24T01:49:15;35.50;;;6.10;;
74102;SDS011;62853;46.166;3.640;2022-12-24T01:51:43;26.83;;;5.43;;
74102;SDS011;62853;46.166;3.640;2022-12-24T01:54:13;20.55;;;4.90;;
74102;SDS011;62853;46.166;3.640;2022-12-24T01:56:43;23.90;;;5.47;;
74102;SDS011;62853;46.166;3.640;2022-12-24T01:59:12;29.48;;;5.50;;
74102;SDS011;62853;46.166;3.640;2022-12-24T02:01:40;30.25;;;7.00;;
74102;SDS011;62853;46.166;3.640;2022-12-24T02:04:16;24.42;;;5.63;;
74102;SDS011;62853;46.166;3.640;2022-12-24T02:06:50;24.13;;;5.35;;
74102;SDS011;62853;46.166;3.640;2022-12-24T02:09:15;27.17;;;5.97;;
74102;SDS011;62853;46.166;3.640;2022-12-24T02:11:41;39.03;;;7.38;;
74102;SDS011;62853;46.166;3.640;2022-12-24T02:14:09;23.67;;;4.95;;
74102;SDS011;62853;46.166;3.640;2022-12-24T02:31:12;25.83;;;4.78;;
74102;SDS011;62853;46.166;3.640;2022-12-24T02:33:53;15.45;;;3.60;;
74102;SDS011;62853;46.166;3.640;2022-12-24T02:36:28;21.33;;;4.47;;
74102;SDS011;62853;46.166;3.640;2022-12-24T02:39:07;22.90;;;4.75;;
74102;SDS011;62853;46.166;3.640;2022-12-24T02:41:41;19.15;;;4.28;;
74102;SDS011;62853;46.166;3.640;2022-12-24T02:44:30;26.02;;;5.38;;
74102;SDS011;62853;46.166;3.640;2022-12-24T02:47:20;14.80;;;3.88;;
74102;SDS011;62853;46.166;3.640;2022-12-24T02:49:49;19.95;;;3.88;;
74102;SDS011;62853;46.166;3.640;2022-12-24T02:52:34;17.33;;;3.97;;
74102;SDS011;62853;46.166;3.640;2022-12-24T02:55:34;19.90;;;4.25;;
74102;SDS011;62853;46.166;3.640;2022-12-24T03:03:59;18.17;;;4.65;;
74102;SDS011;62853;46.166;3.640;2022-12-24T03:09:15;18.95;;;3.97;;
74102;SDS011;62853;46.166;3.640;2022-12-24T03:12:12;16.05;;;3.65;;
74102;SDS011;62853;46.166;3.640;2022-12-24T03:14:44;14.32;;;3.33;;
74102;SDS011;62853;46.166;3.640;2022-12-24T03:17:12;14.15;;;3.35;;
74102;SDS011;62853;46.166;3.640;2022-12-24T03:19:38;17.38;;;3.63;;
74102;SDS011;62853;46.166;3.640;2022-12-24T03:22:06;20.33;;;4.38;;
74102;SDS011;62853;46.166;3.640;2022-12-24T03:24:33;16.38;;;3.08;;
74102;SDS011;62853;46.166;3.640;2022-12-24T03:26:59;14.90;;;3.60;;
74102;SDS011;62853;46.166;3.640;2022-12-24T03:29:26;15.60;;;4.55;;
74102;SDS011;62853;46.166;3.640;2022-12-24T03:31:52;15.32;;;3.72;;
74102;SDS011;62853;46.166;3.640;2022-12-24T03:34:22;18.23;;;4.28;;
74102;SDS011;62853;46.166;3.640;2022-12-24T03:36:48;17.33;;;4.15;;
74102;SDS011;62853;46.166;3.640;2022-12-24T03:39:14;17.33;;;3.58;;
74102;SDS011;62853;46.166;3.640;2022-12-24T03:41:39;14.38;;;3.58;;
74102;SDS011;62853;46.166;3.640;2022-12-24T03:44:04;19.15;;;3.35;;
74102;SDS011;62853;46.166;3.640;2022-12-24T03:46:30;14.70;;;3.08;;
74102;SDS011;62853;46.166;3.640;2022-12-24T03:48:56;11.25;;;2.67;;
74102;SDS011;62853;46.166;3.640;2022-12-24T03:51:22;15.32;;;3.75;;
74102;SDS011;62853;46.166;3.640;2022-12-24T03:53:51;23.08;;;5.10;;
74102;SDS011;62853;46.166;3.640;2022-12-24T03:56:17;11.77;;;3.28;;
74102;SDS011;62853;46.166;3.640;2022-12-24T03:58:42;12.18;;;2.92;;
74102;SDS011;62853;46.166;3.640;2022-12-24T04:01:08;15.18;;;3.72;;
74102;SDS011;62853;46.166;3.640;2022-12-24T04:03:33;18.73;;;4.13;;
74102;SDS011;62853;46.166;3.640;2022-12-24T04:06:02;15.02;;;3.58;;
74102;SDS011;62853;46.166;3.640;2022-12-24T04:08:32;15.07;;;3.20;;
74102;SDS011;62853;46.166;3.640;2022-12-24T04:10:58;15.50;;;3.25;;
74102;SDS011;62853;46.166;3.640;2022-12-24T04:13:24;19.10;;;3.58;;
74102;SDS011;62853;46.166;3.640;2022-12-24T04:15:57;16.00;;;3.17;;
74102;SDS011;62853;46.166;3.640;2022-12-24T04:18:23;14.30;;;3.53;;
74102;SDS011;62853;46.166;3.640;2022-12-24T04:20:48;11.20;;;2.67;;
74102;SDS011;62853;46.166;3.640;2022-12-24T04:23:14;7.32;;;2.30;;
74102;SDS011;62853;46.166;3.640;2022-12-24T04:25:39;10.25;;;2.88;;
74102;SDS011;62853;46.166;3.640;2022-12-24T04:28:04;10.35;;;2.67;;
74102;SDS011;62853;46.166;3.640;2022-12-24T04:30:30;14.52;;;2.97;;
74102;SDS011;62853;46.166;3.640;2022-12-24T04:32:55;18.55;;;4.13;;
74102;SDS011;62853;46.166;3.640;2022-12-24T04:35:20;14.73;;;3.20;;
74102;SDS011;62853;46.166;3.640;2022-12-24T04:37:46;17.42;;;3.90;;
74102;SDS011;62853;46.166;3.640;2022-12-24T04:40:11;13.55;;;3.00;;
74102;SDS011;62853;46.166;3.640;2022-12-24T04:42:37;9.32;;;2.80;;
74102;SDS011;62853;46.166;3.640;2022-12-24T04:45:02;14.38;;;3.95;;
74102;SDS011;62853;46.166;3.640;2022-12-24T04:47:28;18.90;;;3.85;;
74102;SDS011;62853;46.166;3.640;2022-12-24T04:49:53;15.98;;;3.72;;
74102;SDS011;62853;46.166;3.640;2022-12-24T04:52:18;22.27;;;4.45;;
74102;SDS011;62853;46.166;3.640;2022-12-24T04:54:44;19.65;;;3.85;;
74102;SDS011;62853;46.166;3.640;2022-12-24T04:57:09;15.88;;;3.35;;
74102;SDS011;62853;46.166;3.640;2022-12-24T04:59:34;18.48;;;3.88;;
74102;SDS011;62853;46.166;3.640;2022-12-24T05:02:00;12.25;;;3.08;;
74102;SDS011;62853;46.166;3.640;2022-12-24T05:04:25;18.02;;;3.47;;
74102;SDS011;62853;46.166;3.640;2022-12-24T05:06:50;17.95;;;4.00;;
74102;SDS011;62853;46.166;3.640;2022-12-24T05:09:16;20.73;;;3.95;;
74102;SDS011;62853;46.166;3.640;2022-12-24T05:11:41;21.73;;;4.57;;
74102;SDS011;62853;46.166;3.640;2022-12-24T05:14:07;15.48;;;3.08;;
74102;SDS011;62853;46.166;3.640;2022-12-24T05:16:32;16.52;;;3.58;;
74102;SDS011;62853;46.166;3.640;2022-12-24T05:18:57;14.98;;;3.60;;
74102;SDS011;62853;46.166;3.640;2022-12-24T05:21:23;25.50;;;4.22;;
74102;SDS011;62853;46.166;3.640;2022-12-24T05:23:49;25.33;;;4.53;;
74102;SDS011;62853;46.166;3.640;2022-12-24T05:29:08;23.90;;;3.47;;
74102;SDS011;62853;46.166;3.640;2022-12-24T05:31:36;24.55;;;5.03;;
74102;SDS011;62853;46.166;3.640;2022-12-24T05:34:04;20.58;;;4.13;;
74102;SDS011;62853;46.166;3.640;2022-12-24T05:36:29;26.17;;;4.50;;
74102;SDS011;62853;46.166;3.640;2022-12-24T05:38:55;16.83;;;3.25;;
74102;SDS011;62853;46.166;3.640;2022-12-24T05:41:20;12.65;;;2.85;;
74102;SDS011;62853;46.166;3.640;2022-12-24T05:43:46;22.40;;;3.80;;
74102;SDS011;62853;46.166;3.640;2022-12-24T05:46:12;13.23;;;3.05;;
74102;SDS011;62853;46.166;3.640;2022-12-24T05:48:39;23.63;;;4.05;;
74102;SDS011;62853;46.166;3.640;2022-12-24T05:51:06;26.88;;;5.40;;
74102;SDS011;62853;46.166;3.640;2022-12-24T05:53:33;14.73;;;4.03;;
74102;SDS011;62853;46.166;3.640;2022-12-24T05:56:19;23.08;;;4.28;;
74102;SDS011;62853;46.166;3.640;2022-12-24T05:58:46;15.40;;;4.07;;
74102;SDS011;62853;46.166;3.640;2022-12-24T06:01:13;22.45;;;4.32;;
74102;SDS011;62853;46.166;3.640;2022-12-24T06:03:39;14.55;;;4.03;;
74102;SDS011;62853;46.166;3.640;2022-12-24T06:06:05;18.83;;;4.75;;
74102;SDS011;62853;46.166;3.640;2022-12-24T06:08:33;17.27;;;4.35;;
74102;SDS011;62853;46.166;3.640;2022-12-24T06:11:01;21.95;;;4.25;;
74102;SDS011;62853;46.166;3.640;2022-12-24T06:13:28;21.83;;;5.57;;
74102;SDS011;62853;46.166;3.640;2022-12-24T06:15:58;16.67;;;4.38;;
74102;SDS011;62853;46.166;3.640;2022-12-24T06:18:24;13.73;;;4.05;;
74102;SDS011;62853;46.166;3.640;2022-12-24T06:20:54;15.30;;;3.65;;
74102;SDS011;62853;46.166;3.640;2022-12-24T06:23:21;20.67;;;4.72;;
74102;SDS011;62853;46.166;3.640;2022-12-24T06:25:46;14.45;;;3.95;;
74102;SDS011;62853;46.166;3.640;2022-12-24T06:28:12;18.08;;;4.35;;
74102;SDS011;62853;46.166;3.640;2022-12-24T06:30:38;21.52;;;4.95;;
74102;SDS011;62853;46.166;3.640;2022-12-24T06:33:03;22.02;;;4.68;;
74102;SDS011;62853;46.166;3.640;2022-12-24T06:35:32;23.23;;;5.70;;
74102;SDS011;62853;46.166;3.640;2022-12-24T06:37:58;23.88;;;5.50;;
74102;SDS011;62853;46.166;3.640;2022-12-24T06:40:24;23.92;;;4.60;;
74102;SDS011;62853;46.166;3.640;2022-12-24T06:42:50;22.25;;;4.72;;
74102;SDS011;62853;46.166;3.640;2022-12-24T06:45:16;27.88;;;4.97;;
74102;SDS011;62853;46.166;3.640;2022-12-24T06:47:41;23.45;;;5.30;;
74102;SDS011;62853;46.166;3.640;2022-12-24T06:50:06;23.25;;;5.72;;
74102;SDS011;62853;46.166;3.640;2022-12-24T06:52:32;41.33;;;7.38;;
74102;SDS011;62853;46.166;3.640;2022-12-24T06:54:57;22.52;;;4.82;;
74102;SDS011;62853;46.166;3.640;2022-12-24T06:57:23;23.60;;;5.10;;
74102;SDS011;62853;46.166;3.640;2022-12-24T06:59:48;25.15;;;4.88;;
74102;SDS011;62853;46.166;3.640;2022-12-24T07:02:14;15.38;;;5.80;;
74102;SDS011;62853;46.166;3.640;2022-12-24T07:04:39;17.83;;;4.45;;
74102;SDS011;62853;46.166;3.640;2022-12-24T07:07:04;23.23;;;5.15;;
74102;SDS011;62853;46.166;3.640;2022-12-24T07:09:30;40.97;;;6.45;;
74102;SDS011;62853;46.166;3.640;2022-12-24T07:11:55;28.70;;;6.20;;
74102;SDS011;62853;46.166;3.640;2022-12-24T07:14:21;23.92;;;5.15;;
74102;SDS011;62853;46.166;3.640;2022-12-24T07:16:46;28.88;;;6.45;;
74102;SDS011;62853;46.166;3.640;2022-12-24T07:19:11;18.48;;;4.53;;
74102;SDS011;62853;46.166;3.640;2022-12-24T07:21:37;28.13;;;5.53;;
74102;SDS011;62853;46.166;3.640;2022-12-24T07:24:03;28.17;;;5.50;;
74102;SDS011;62853;46.166;3.640;2022-12-24T07:26:28;20.60;;;4.60;;
74102;SDS011;62853;46.166;3.640;2022-12-24T07:28:54;27.17;;;5.50;;
74102;SDS011;62853;46.166;3.640;2022-12-24T07:31:19;27.73;;;5.85;;
74102;SDS011;62853;46.166;3.640;2022-12-24T07:33:45;23.80;;;6.30;;
74102;SDS011;62853;46.166;3.640;2022-12-24T07:36:13;17.92;;;4.93;;
74102;SDS011;62853;46.166;3.640;2022-12-24T07:38:43;26.25;;;6.38;;
74102;SDS011;62853;46.166;3.640;2022-12-24T07:41:08;22.33;;;6.00;;
74102;SDS011;62853;46.166;3.640;2022-12-24T07:43:34;22.17;;;5.13;;
74102;SDS011;62853;46.166;3.640;2022-12-24T07:45:59;35.05;;;6.13;;
74102;SDS011;62853;46.166;3.640;2022-12-24T07:48:26;25.05;;;4.70;;
74102;SDS011;62853;46.166;3.640;2022-12-24T07:50:52;26.20;;;5.30;;
74102;SDS011;62853;46.166;3.640;2022-12-24T07:53:18;17.05;;;3.97;;
74102;SDS011;62853;46.166;3.640;2022-12-24T07:55:44;26.10;;;5.40;;
74102;SDS011;62853;46.166;3.640;2022-12-24T07:58:09;13.50;;;4.03;;
74102;SDS011;62853;46.166;3.640;2022-12-24T08:00:34;18.63;;;4.28;;
74102;SDS011;62853;46.166;3.640;2022-12-24T08:03:00;19.55;;;4.70;;
74102;SDS011;62853;46.166;3.640;2022-12-24T08:05:26;21.23;;;5.03;;
74102;SDS011;62853;46.166;3.640;2022-12-24T08:07:52;24.45;;;5.80;;
74102;SDS011;62853;46.166;3.640;2022-12-24T08:10:18;23.85;;;5.88;;
74102;SDS011;62853;46.166;3.640;2022-12-24T08:12:43;20.38;;;4.97;;
74102;SDS011;62853;46.166;3.640;2022-12-24T08:15:09;18.88;;;4.13;;
74102;SDS011;62853;46.166;3.640;2022-12-24T08:17:35;26.85;;;6.38;;
74102;SDS011;62853;46.166;3.640;2022-12-24T08:20:02;32.20;;;6.93;;
74102;SDS011;62853;46.166;3.640;2022-12-24T08:22:29;17.35;;;3.90;;
74102;SDS011;62853;46.166;3.640;2022-12-24T08:24:55;24.17;;;4.30;;
74102;SDS011;62853;46.166;3.640;2022-12-24T08:27:20;20.05;;;4.75;;
74102;SDS011;62853;46.166;3.640;2022-12-24T08:29:46;13.77;;;3.80;;
74102;SDS011;62853;46.166;3.640;2022-12-24T08:32:11;30.15;;;5.25;;
74102;SDS011;62853;46.166;3.640;2022-12-24T08:34:36;26.95;;;5.47;;
74102;SDS011;62853;46.166;3.640;2022-12-24T08:37:02;18.85;;;4.82;;
74102;SDS011;62853;46.166;3.640;2022-12-24T08:39:27;23.33;;;5.45;;
74102;SDS011;62853;46.166;3.640;2022-12-24T08:41:53;20.67;;;4.28;;
74102;SDS011;62853;46.166;3.640;2022-12-24T08:44:18;17.67;;;3.80;;
74102;SDS011;62853;46.166;3.640;2022-12-24T08:46:43;15.60;;;3.92;;
74102;SDS011;62853;46.166;3.640;2022-12-24T08:49:09;21.98;;;5.28;;
74102;SDS011;62853;46.166;3.640;2022-12-24T08:51:34;16.23;;;3.53;;
74102;SDS011;62853;46.166;3.640;2022-12-24T08:53:59;24.70;;;4.97;;
74102;SDS011;62853;46.166;3.640;2022-12-24T08:56:25;24.65;;;5.40;;
74102;SDS011;62853;46.166;3.640;2022-12-24T08:58:50;18.67;;;4.05;;
74102;SDS011;62853;46.166;3.640;2022-12-24T09:01:16;24.95;;;5.00;;
74102;SDS011;62853;46.166;3.640;2022-12-24T09:03:43;23.75;;;4.85;;
74102;SDS011;62853;46.166;3.640;2022-12-24T09:06:09;16.02;;;4.75;;
74102;SDS011;62853;46.166;3.640;2022-12-24T09:08:35;23.88;;;5.15;;
74102;SDS011;62853;46.166;3.640;2022-12-24T09:11:04;22.48;;;4.68;;
74102;SDS011;62853;46.166;3.640;2022-12-24T09:13:31;21.83;;;5.05;;
74102;SDS011;62853;46.166;3.640;2022-12-24T09:15:57;18.88;;;4.90;;
74102;SDS011;62853;46.166;3.640;2022-12-24T09:18:23;23.05;;;5.72;;
74102;SDS011;62853;46.166;3.640;2022-12-24T09:20:48;27.58;;;6.28;;
74102;SDS011;62853;46.166;3.640;2022-12-24T09:23:14;20.35;;;5.07;;
74102;SDS011;62853;46.166;3.640;2022-12-24T09:25:40;30.00;;;5.82;;
74102;SDS011;62853;46.166;3.640;2022-12-24T09:28:08;24.80;;;5.47;;
74102;SDS011;62853;46.166;3.640;2022-12-24T09:30:35;24.33;;;5.18;;
74102;SDS011;62853;46.166;3.640;2022-12-24T09:33:01;23.55;;;5.82;;
74102;SDS011;62853;46.166;3.640;2022-12-24T09:35:26;23.02;;;5.55;;
74102;SDS011;62853;46.166;3.640;2022-12-24T09:37:52;20.55;;;4.68;;
74102;SDS011;62853;46.166;3.640;2022-12-24T09:40:28;16.35;;;5.40;;
74102;SDS011;62853;46.166;3.640;2022-12-24T09:43:00;19.08;;;5.38;;
74102;SDS011;62853;46.166;3.640;2022-12-24T09:45:36;18.98;;;4.78;;
74102;SDS011;62853;46.166;3.640;2022-12-24T09:48:15;14.70;;;4.05;;
74102;SDS011;62853;46.166;3.640;2022-12-24T09:53:26;14.80;;;4.60;;
74102;SDS011;62853;46.166;3.640;2022-12-24T09:55:55;11.35;;;3.83;;
74102;SDS011;62853;46.166;3.640;2022-12-24T10:00:58;30.35;;;6.05;;
74102;SDS011;62853;46.166;3.640;2022-12-24T10:03:24;24.92;;;5.90;;
74102;SDS011;62853;46.166;3.640;2022-12-24T10:11:06;18.08;;;5.18;;
74102;SDS011;62853;46.166;3.640;2022-12-24T10:19:13;21.27;;;5.20;;
74102;SDS011;62853;46.166;3.640;2022-12-24T10:21:49;21.73;;;5.72;;
74102;SDS011;62853;46.166;3.640;2022-12-24T10:24:49;24.52;;;5.20;;
74102;SDS011;62853;46.166;3.640;2022-12-24T10:27:23;30.08;;;6.68;;
74102;SDS011;62853;46.166;3.640;2022-12-24T10:29:57;25.63;;;5.55;;
74102;SDS011;62853;46.166;3.640;2022-12-24T10:32:29;15.68;;;4.80;;
74102;SDS011;62853;46.166;3.640;2022-12-24T10:34:57;20.17;;;5.18;;
74102;SDS011;62853;46.166;3.640;2022-12-24T10:37:26;18.85;;;6.00;;
74102;SDS011;62853;46.166;3.640;2022-12-24T10:39:54;17.80;;;4.80;;
74102;SDS011;62853;46.166;3.640;2022-12-24T10:42:20;19.00;;;5.07;;
74102;SDS011;62853;46.166;3.640;2022-12-24T10:44:50;19.50;;;4.97;;
74102;SDS011;62853;46.166;3.640;2022-12-24T10:47:21;18.63;;;5.63;;
74102;SDS011;62853;46.166;3.640;2022-12-24T10:49:56;23.00;;;5.60;;
74102;SDS011;62853;46.166;3.640;2022-12-24T10:52:28;19.23;;;5.18;;
74102;SDS011;62853;46.166;3.640;2022-12-24T10:55:06;19.13;;;5.43;;
74102;SDS011;62853;46.166;3.640;2022-12-24T10:57:38;14.52;;;5.22;;
74102;SDS011;62853;46.166;3.640;2022-12-24T11:00:06;11.38;;;5.05;;
74102;SDS011;62853;46.166;3.640;2022-12-24T11:02:42;15.20;;;5.00;;
74102;SDS011;62853;46.166;3.640;2022-12-24T11:05:27;18.80;;;5.20;;
74102;SDS011;62853;46.166;3.640;2022-12-24T11:08:02;20.73;;;6.15;;
74102;SDS011;62853;46.166;3.640;2022-12-24T11:10:29;13.98;;;5.15;;
74102;SDS011;62853;46.166;3.640;2022-12-24T11:12:55;12.85;;;4.50;;
74102;SDS011;62853;46.166;3.640;2022-12-24T11:15:22;22.00;;;6.70;;
74102;SDS011;62853;46.166;3.640;2022-12-24T11:17:58;15.43;;;5.50;;
74102;SDS011;62853;46.166;3.640;2022-12-24T11:20:28;16.58;;;5.50;;
74102;SDS011;62853;46.166;3.640;2022-12-24T11:22:55;23.75;;;6.00;;
74102;SDS011;62853;46.166;3.640;2022-12-24T11:25:23;13.32;;;4.35;;
74102;SDS011;62853;46.166;3.640;2022-12-24T11:27:55;24.27;;;6.25;;
74102;SDS011;62853;46.166;3.640;2022-12-24T11:30:34;16.05;;;5.28;;
74102;SDS011;62853;46.166;3.640;2022-12-24T11:35:26;18.20;;;6.22;;
74102;SDS011;62853;46.166;3.640;2022-12-24T11:40:24;17.10;;;5.70;;
74102;SDS011;62853;46.166;3.640;2022-12-24T11:42:52;18.63;;;6.10;;
74102;SDS011;62853;46.166;3.640;2022-12-24T11:45:27;17.67;;;6.72;;
74102;SDS011;62853;46.166;3.640;2022-12-24T11:47:55;18.70;;;5.57;;
74102;SDS011;62853;46.166;3.640;2022-12-24T11:50:28;17.60;;;5.47;;
74102;SDS011;62853;46.166;3.640;2022-12-24T11:55:39;16.92;;;5.80;;
74102;SDS011;62853;46.166;3.640;2022-12-24T11:58:22;20.05;;;6.18;;
74102;SDS011;62853;46.166;3.640;2022-12-24T12:01:01;21.08;;;6.80;;
74102;SDS011;62853;46.166;3.640;2022-12-24T12:03:37;27.75;;;8.13;;
74102;SDS011;62853;46.166;3.640;2022-12-24T12:06:17;25.25;;;8.45;;
74102;SDS011;62853;46.166;3.640;2022-12-24T12:08:50;24.98;;;7.65;;
74102;SDS011;62853;46.166;3.640;2022-12-24T12:11:20;24.20;;;8.40;;
74102;SDS011;62853;46.166;3.640;2022-12-24T12:13:47;19.85;;;8.38;;
74102;SDS011;62853;46.166;3.640;2022-12-24T12:16:16;19.90;;;6.63;;
74102;SDS011;62853;46.166;3.640;2022-12-24T12:18:58;25.35;;;8.50;;
74102;SDS011;62853;46.166;3.640;2022-12-24T12:21:41;18.90;;;7.80;;
74102;SDS011;62853;46.166;3.640;2022-12-24T12:24:13;28.08;;;8.82;;
74102;SDS011;62853;46.166;3.640;2022-12-24T12:26:45;17.83;;;6.82;;
74102;SDS011;62853;46.166;3.640;2022-12-24T12:31:42;18.75;;;7.80;;
74102;SDS011;62853;46.166;3.640;2022-12-24T12:34:12;22.65;;;8.90;;
74102;SDS011;62853;46.166;3.640;2022-12-24T12:36:46;20.52;;;8.20;;
74102;SDS011;62853;46.166;3.640;2022-12-24T12:39:18;23.38;;;8.00;;
74102;SDS011;62853;46.166;3.640;2022-12-24T12:41:53;25.83;;;9.00;;
74102;SDS011;62853;46.166;3.640;2022-12-24T12:58:38;18.52;;;7.53;;
74102;SDS011;62853;46.166;3.640;2022-12-24T13:01:13;24.88;;;8.15;;
74102;SDS011;62853;46.166;3.640;2022-12-24T13:07:06;17.88;;;7.93;;
74102;SDS011;62853;46.166;3.640;2022-12-24T13:15:21;15.95;;;6.97;;
74102;SDS011;62853;46.166;3.640;2022-12-24T13:18:20;18.42;;;6.60;;
74102;SDS011;62853;46.166;3.640;2022-12-24T13:20:57;24.48;;;7.75;;
74102;SDS011;62853;46.166;3.640;2022-12-24T13:23:23;18.23;;;7.03;;
74102;SDS011;62853;46.166;3.640;2022-12-24T13:25:52;18.30;;;6.95;;
74102;SDS011;62853;46.166;3.640;2022-12-24T13:31:32;16.90;;;6.03;;
74102;SDS011;62853;46.166;3.640;2022-12-24T13:36:01;13.40;;;5.60;;
74102;SDS011;62853;46.166;3.640;2022-12-24T13:38:32;15.73;;;5.18;;
74102;SDS011;62853;46.166;3.640;2022-12-24T13:41:42;25.92;;;6.32;;
74102;SDS011;62853;46.166;3.640;2022-12-24T13:46:50;20.80;;;6.22;;
74102;SDS011;62853;46.166;3.640;2022-12-24T13:59:59;14.35;;;5.78;;
74102;SDS011;62853;46.166;3.640;2022-12-24T14:02:34;30.38;;;7.60;;
74102;SDS011;62853;46.166;3.640;2022-12-24T14:05:04;22.38;;;7.88;;
74102;SDS011;62853;46.166;3.640;2022-12-24T14:07:33;15.38;;;5.80;;
74102;SDS011;62853;46.166;3.640;2022-12-24T14:10:00;19.40;;;6.28;;
74102;SDS011;62853;46.166;3.640;2022-12-24T14:12:31;14.93;;;5.35;;
74102;SDS011;62853;46.166;3.640;2022-12-24T14:18:15;24.15;;;6.53;;
74102;SDS011;62853;46.166;3.640;2022-12-24T14:20:47;15.10;;;5.38;;
74102;SDS011;62853;46.166;3.640;2022-12-24T14:23:27;18.10;;;5.93;;
74102;SDS011;62853;46.166;3.640;2022-12-24T14:25:59;13.77;;;4.75;;
74102;SDS011;62853;46.166;3.640;2022-12-24T14:28:33;12.40;;;4.30;;
74102;SDS011;62853;46.166;3.640;2022-12-24T14:31:03;12.90;;;5.05;;
74102;SDS011;62853;46.166;3.640;2022-12-24T14:33:30;17.42;;;4.97;;
74102;SDS011;62853;46.166;3.640;2022-12-24T14:35:59;15.10;;;4.63;;
74102;SDS011;62853;46.166;3.640;2022-12-24T14:38:26;12.55;;;4.03;;
74102;SDS011;62853;46.166;3.640;2022-12-24T14:41:05;10.60;;;4.47;;
74102;SDS011;62853;46.166;3.640;2022-12-24T14:51:43;14.23;;;4.82;;
74102;SDS011;62853;46.166;3.640;2022-12-24T14:54:31;12.30;;;4.40;;
74102;SDS011;62853;46.166;3.640;2022-12-24T14:59:50;11.02;;;3.45;;
74102;SDS011;62853;46.166;3.640;2022-12-24T15:05:12;14.88;;;4.22;;
74102;SDS011;62853;46.166;3.640;2022-12-24T15:07:42;16.15;;;3.80;;
74102;SDS011;62853;46.166;3.640;2022-12-24T15:10:22;17.55;;;5.00;;
74102;SDS011;62853;46.166;3.640;2022-12-24T15:12:51;16.75;;;4.43;;
74102;SDS011;62853;46.166;3.640;2022-12-24T15:15:17;10.55;;;3.92;;
74102;SDS011;62853;46.166;3.640;2022-12-24T15:17:43;14.07;;;4.00;;
74102;SDS011;62853;46.166;3.640;2022-12-24T15:20:13;15.15;;;4.13;;
74102;SDS011;62853;46.166;3.640;2022-12-24T15:22:45;12.23;;;3.38;;
74102;SDS011;62853;46.166;3.640;2022-12-24T15:25:18;18.05;;;4.75;;
74102;SDS011;62853;46.166;3.640;2022-12-24T15:27:48;10.73;;;3.95;;
74102;SDS011;62853;46.166;3.640;2022-12-24T15:30:16;13.80;;;3.60;;
74102;SDS011;62853;46.166;3.640;2022-12-24T15:32:46;13.68;;;3.42;;
74102;SDS011;62853;46.166;3.640;2022-12-24T15:38:16;11.30;;;3.67;;
74102;SDS011;62853;46.166;3.640;2022-12-24T15:40:47;17.13;;;4.88;;
74102;SDS011;62853;46.166;3.640;2022-12-24T15:43:13;14.38;;;3.50;;
74102;SDS011;62853;46.166;3.640;2022-12-24T15:45:40;13.73;;;4.00;;
74102;SDS011;62853;46.166;3.640;2022-12-24T15:48:09;14.25;;;3.47;;
74102;SDS011;62853;46.166;3.640;2022-12-24T15:50:44;13.68;;;3.75;;
74102;SDS011;62853;46.166;3.640;2022-12-24T15:53:13;10.15;;;3.05;;
74102;SDS011;62853;46.166;3.640;2022-12-24T15:58:29;12.48;;;3.28;;
74102;SDS011;62853;46.166;3.640;2022-12-24T16:03:30;12.77;;;3.53;;
74102;SDS011;62853;46.166;3.640;2022-12-24T16:06:00;16.30;;;3.72;;
74102;SDS011;62853;46.166;3.640;2022-12-24T16:08:28;14.23;;;3.63;;
74102;SDS011;62853;46.166;3.640;2022-12-24T16:13:29;11.43;;;3.60;;
74102;SDS011;62853;46.166;3.640;2022-12-24T16:15:57;10.20;;;3.25;;
74102;SDS011;62853;46.166;3.640;2022-12-24T16:18:27;13.90;;;3.60;;
74102;SDS011;62853;46.166;3.640;2022-12-24T16:20:57;11.43;;;3.42;;
74102;SDS011;62853;46.166;3.640;2022-12-24T16:23:25;9.35;;;3.25;;
74102;SDS011;62853;46.166;3.640;2022-12-24T16:25:54;10.68;;;3.47;;
74102;SDS011;62853;46.166;3.640;2022-12-24T16:28:21;8.20;;;2.45;;
74102;SDS011;62853;46.166;3.640;2022-12-24T16:30:47;13.15;;;3.58;;
74102;SDS011;62853;46.166;3.640;2022-12-24T16:33:13;16.13;;;3.70;;
74102;SDS011;62853;46.166;3.640;2022-12-24T16:35:41;9.63;;;3.00;;
74102;SDS011;62853;46.166;3.640;2022-12-24T16:38:07;10.55;;;3.10;;
74102;SDS011;62853;46.166;3.640;2022-12-24T16:40:33;10.93;;;3.38;;
74102;SDS011;62853;46.166;3.640;2022-12-24T16:42:58;9.20;;;2.92;;
74102;SDS011;62853;46.166;3.640;2022-12-24T16:45:43;7.60;;;2.95;;
74102;SDS011;62853;46.166;3.640;2022-12-24T16:48:13;8.95;;;3.15;;